Time;durP1;ratioP1;P1;durP2;ratioP2;P2;SDS_P1;SDS_P2;PMS_P1;PMS_P2;Temp;Humidity;BMP_temperature;BMP_pressure;BME280_temperature;BME280_humidity;BME280_pressure;Samples;Min_cycle;Max_cycle;Signal;HPM_P1;HPM_P2
2023/05/07 00:02:18;;;;;;;11.80;5.30;;;;;;;1.95;100.00;101379.74;105700;1254;74601;-49
2023/05/07 00:04:45;;;;;;;6.70;4.60;;;;;;;1.89;100.00;101373.08;105760;1254;62951;-50
2023/05/07 00:07:12;;;;;;;9.20;5.00;;;;;;;1.83;100.00;101366.96;105651;1254;61832;-50
2023/05/07 00:09:39;;;;;;;8.70;4.80;;;;;;;1.80;100.00;101360.02;105672;1257;75748;-49
2023/05/07 00:12:07;;;;;;;8.50;4.50;;;;;;;1.75;100.00;101355.46;105704;1259;66260;-50
2023/05/07 00:14:34;;;;;;;9.90;5.10;;;;;;;1.70;100.00;101356.49;105755;1257;74925;-50
2023/05/07 00:17:01;;;;;;;5.70;4.70;;;;;;;1.67;100.00;101358.27;105764;1254;61967;-49
2023/05/07 00:19:28;;;;;;;10.60;4.30;;;;;;;1.62;100.00;101355.73;105674;1254;63078;-49
2023/05/07 00:21:56;;;;;;;7.80;4.50;;;;;;;1.60;100.00;101353.44;105702;1257;75489;-49
2023/05/07 00:24:23;;;;;;;5.90;3.90;;;;;;;1.57;100.00;101357.95;105674;1253;66904;-50
2023/05/07 00:26:51;;;;;;;7.40;3.90;;;;;;;1.53;100.00;101368.04;105680;1259;73471;-50
2023/05/07 00:29:18;;;;;;;11.30;4.30;;;;;;;1.50;100.00;101369.61;105801;1253;60265;-50
2023/05/07 00:31:45;;;;;;;8.70;4.60;;;;;;;1.47;100.00;101369.67;105690;1254;62748;-49
2023/05/07 00:34:12;;;;;;;6.90;5.00;;;;;;;1.46;100.00;101368.13;105684;1254;74426;-50
2023/05/07 00:36:40;;;;;;;10.20;4.00;;;;;;;1.45;100.00;101368.77;105652;1254;66325;-49
2023/05/07 00:39:07;;;;;;;9.10;5.10;;;;;;;1.42;100.00;101374.30;105720;1254;75649;-50
2023/05/07 00:41:34;;;;;;;11.00;4.30;;;;;;;1.38;100.00;101377.90;105824;1254;61822;-49
2023/05/07 00:44:03;;;;;;;6.60;4.30;;;;;;;1.34;100.00;101375.56;105762;1253;62724;-50
2023/05/07 00:46:30;;;;;;;8.00;3.90;;;;;;;1.31;100.00;101380.56;105785;1256;74570;-49
2023/05/07 00:48:57;;;;;;;4.40;3.80;;;;;;;1.27;100.00;101382.31;105660;1259;66585;-49
2023/05/07 00:51:26;;;;;;;9.10;4.20;;;;;;;1.23;100.00;101386.58;105733;1254;75027;-49
2023/05/07 00:53:53;;;;;;;5.60;3.90;;;;;;;1.19;100.00;101384.55;105658;1259;62615;-50
2023/05/07 00:56:21;;;;;;;12.90;4.10;;;;;;;1.13;100.00;101386.25;105773;1257;61958;-49
2023/05/07 00:58:48;;;;;;;6.90;3.90;;;;;;;1.11;100.00;101388.89;105692;1257;76667;-50
2023/05/07 01:01:16;;;;;;;5.60;4.20;;;;;;;1.08;100.00;101387.77;105790;1254;65229;-49
2023/05/07 01:03:43;;;;;;;6.20;4.70;;;;;;;1.06;100.00;101391.59;105883;1253;74099;-50
2023/05/07 01:06:12;;;;;;;6.50;3.60;;;;;;;1.04;100.00;101393.56;105647;1259;61845;-49
2023/05/07 01:08:40;;;;;;;6.20;4.10;;;;;;;1.04;100.00;101393.38;105792;1257;61735;-49
2023/05/07 01:11:07;;;;;;;5.00;3.30;;;;;;;1.03;100.00;101396.09;105733;1254;76209;-49
2023/05/07 01:13:35;;;;;;;8.50;4.40;;;;;;;1.06;100.00;101396.35;105787;1257;66783;-49
2023/05/07 01:16:03;;;;;;;5.10;4.10;;;;;;;1.09;100.00;101397.46;105776;1254;73896;-49
2023/05/07 01:18:30;;;;;;;5.60;3.50;;;;;;;1.06;100.00;101401.27;105745;1253;61366;-49
2023/05/07 01:20:58;;;;;;;6.50;4.30;;;;;;;1.01;100.00;101403.84;105763;1254;60871;-49
2023/05/07 01:23:26;;;;;;;4.30;3.80;;;;;;;0.95;100.00;101409.21;105793;1257;76517;-49
2023/05/07 01:25:54;;;;;;;10.70;3.90;;;;;;;0.88;100.00;101409.31;105802;1254;67207;-50
2023/05/07 01:28:22;;;;;;;4.80;4.00;;;;;;;0.84;100.00;101417.84;105701;1257;74527;-49
2023/05/07 01:30:55;;;;;;;8.40;4.30;;;;;;;0.82;100.00;101425.26;105754;1253;63319;-49
2023/05/07 01:33:23;;;;;;;6.00;3.90;;;;;;;0.77;100.00;101430.48;105768;1257;61701;-48
2023/05/07 01:37:46;;;;;;;7.60;4.00;;;;;;;0.70;100.00;101411.02;102743;1290;600865;-49
2023/05/07 01:40:14;;;;;;;6.50;4.10;;;;;;;0.65;100.00;101433.10;104874;1271;60995;-49
2023/05/07 01:42:41;;;;;;;6.50;4.00;;;;;;;0.63;100.00;101450.34;104837;1273;60521;-49
2023/05/07 01:45:09;;;;;;;6.80;3.70;;;;;;;0.61;100.00;101466.58;104877;1269;74594;-50
2023/05/07 01:47:37;;;;;;;5.40;4.40;;;;;;;0.61;100.00;101482.56;104906;1269;67276;-49
2023/05/07 01:50:05;;;;;;;3.90;3.60;;;;;;;0.61;100.00;101498.67;104847;1272;75070;-49
2023/05/07 01:52:32;;;;;;;9.40;4.70;;;;;;;0.61;100.00;101512.27;105079;1267;210709;-48
2023/05/07 01:54:59;;;;;;;4.50;3.70;;;;;;;0.60;100.00;101526.17;104871;1264;61797;-48
2023/05/07 01:57:26;;;;;;;8.00;4.00;;;;;;;0.58;100.00;101543.45;105182;1264;74659;-49
2023/05/07 01:59:54;;;;;;;11.10;3.70;;;;;;;0.57;100.00;101552.74;104995;1268;67443;-48
2023/05/07 02:02:21;;;;;;;13.20;4.20;;;;;;;0.53;100.00;101559.92;105196;1267;75685;-49
2023/05/07 02:04:49;;;;;;;7.40;4.20;;;;;;;0.50;100.00;101563.17;105058;1264;60337;-48
2023/05/07 02:07:17;;;;;;;4.20;3.70;;;;;;;0.46;100.00;101573.38;105127;1264;62825;-49
2023/05/07 02:09:44;;;;;;;5.50;4.10;;;;;;;0.42;100.00;101581.55;104956;1268;74789;-49
2023/05/07 02:12:12;;;;;;;6.90;4.00;;;;;;;0.40;100.00;101589.79;105134;1267;67456;-49
2023/05/07 02:14:39;;;;;;;22.10;3.70;;;;;;;0.39;100.00;101605.20;104963;1268;74243;-49
2023/05/07 02:17:07;;;;;;;5.10;3.70;;;;;;;0.39;100.00;101618.29;104826;1270;60297;-50
2023/05/07 02:19:35;;;;;;;10.50;4.10;;;;;;;0.41;100.00;101625.85;105025;1265;62171;-49
2023/05/07 02:22:02;;;;;;;5.30;3.90;;;;;;;0.40;100.00;101630.91;105261;1263;75138;-48
2023/05/07 02:24:30;;;;;;;5.60;4.50;;;;;;;0.39;100.00;101640.67;105506;1258;65780;-48
2023/05/07 02:26:57;;;;;;;6.70;3.40;;;;;;;0.38;100.00;101653.02;105562;1262;74508;-49
2023/05/07 02:29:24;;;;;;;4.70;3.90;;;;;;;0.40;100.00;101664.00;105417;1263;62334;-49
2023/05/07 02:31:53;;;;;;;9.00;4.10;;;;;;;0.41;100.00;101674.07;105519;1261;63055;-49
2023/05/07 02:34:20;;;;;;;7.60;4.30;;;;;;;0.41;100.00;101678.98;105579;1259;75354;-49
2023/05/07 02:36:47;;;;;;;9.70;4.10;;;;;;;0.44;100.00;101683.73;105363;1265;66153;-49
2023/05/07 02:39:17;;;;;;;7.00;4.10;;;;;;;0.47;100.00;101687.91;105593;1263;73572;-48
2023/05/07 02:41:44;;;;;;;7.60;4.00;;;;;;;0.52;100.00;101697.12;105561;1257;63142;-49
2023/05/07 02:44:12;;;;;;;6.40;4.20;;;;;;;0.59;100.00;101698.77;105548;1262;62789;-49
2023/05/07 02:46:39;;;;;;;6.70;3.70;;;;;;;0.70;100.00;101704.34;105557;1262;74250;-49
2023/05/07 02:49:08;;;;;;;5.50;4.00;;;;;;;0.82;100.00;101693.77;105597;1257;65139;-49
2023/05/07 02:51:35;;;;;;;5.70;3.80;;;;;;;0.92;100.00;101684.16;105515;1262;75375;-49
2023/05/07 02:54:04;;;;;;;14.20;4.20;;;;;;;0.97;100.00;101676.36;105630;1258;62171;-49
2023/05/07 02:56:32;;;;;;;8.00;4.20;;;;;;;1.02;100.00;101664.66;105575;1263;61492;-49
2023/05/07 02:58:59;;;;;;;5.50;4.10;;;;;;;1.08;100.00;101654.35;105272;1263;73169;-50
2023/05/07 03:01:28;;;;;;;5.00;3.40;;;;;;;1.12;100.00;101645.02;105174;1263;67517;-50
2023/05/07 03:04:01;;;;;;;8.50;3.90;;;;;;;1.16;100.00;101632.73;105417;1263;75480;-54
2023/05/07 03:06:28;;;;;;;9.40;3.90;;;;;;;1.24;100.00;101628.61;105338;1263;61937;-50
2023/05/07 03:08:55;;;;;;;8.60;3.90;;;;;;;1.33;100.00;101622.17;105578;1262;61806;-49
2023/05/07 03:11:22;;;;;;;9.80;3.20;;;;;;;1.46;100.00;101609.23;105253;1273;73299;-51
2023/05/07 03:13:49;;;;;;;11.00;4.10;;;;;;;1.59;100.00;101594.35;105484;1258;67171;-50
2023/05/07 03:16:17;;;;;;;5.70;3.50;;;;;;;1.68;100.00;101585.02;105564;1260;73870;-49
2023/05/07 03:18:44;;;;;;;7.30;3.40;;;;;;;1.78;100.00;101570.54;105556;1261;60858;-50
2023/05/07 03:21:12;;;;;;;6.20;3.20;;;;;;;1.88;100.00;101550.80;105583;1262;62483;-50
2023/05/07 03:23:39;;;;;;;6.80;3.70;;;;;;;1.99;100.00;101531.91;105508;1262;75718;-50
2023/05/07 03:26:07;;;;;;;7.20;3.80;;;;;;;2.11;100.00;101505.95;105541;1263;67465;-48
2023/05/07 03:28:34;;;;;;;6.00;3.30;;;;;;;2.25;100.00;101474.55;105282;1264;73834;-48
2023/05/07 03:31:03;;;;;;;5.70;3.30;;;;;;;2.40;100.00;101456.12;105547;1258;63043;-49
2023/05/07 03:33:33;;;;;;;3.20;2.70;;;;;;;2.57;100.00;101430.70;105410;1263;61832;-48
2023/05/07 03:36:00;;;;;;;8.60;2.80;;;;;;;2.72;100.00;101411.56;105585;1263;75341;-49
2023/05/07 03:38:27;;;;;;;3.80;3.00;;;;;;;2.88;100.00;101395.80;105607;1258;66501;-50
2023/05/07 03:40:54;;;;;;;6.30;2.80;;;;;;;3.06;100.00;101394.60;105505;1262;74243;-50
2023/05/07 03:43:21;;;;;;;4.50;3.70;;;;;;;3.26;100.00;101393.44;105402;1263;62015;-49
2023/05/07 03:45:54;;;;;;;7.70;3.20;;;;;;;3.51;100.00;101390.66;105408;1258;63053;-49
2023/05/07 03:48:24;;;;;;;12.00;3.30;;;;;;;3.78;100.00;101392.18;105555;1260;74237;-49
2023/05/07 03:50:53;;;;;;;4.60;3.00;;;;;;;4.02;100.00;101405.08;105439;1257;67138;-49
2023/05/07 03:53:20;;;;;;;5.50;2.90;;;;;;;4.24;100.00;101416.68;105532;1264;75002;-49
2023/05/07 03:55:47;;;;;;;2.80;2.50;;;;;;;4.45;100.00;101422.77;105586;1257;62367;-49
2023/05/07 03:58:15;;;;;;;3.70;3.20;;;;;;;4.67;100.00;101444.13;105613;1260;62492;-49
2023/05/07 04:00:42;;;;;;;6.50;3.00;;;;;;;4.90;100.00;101477.95;105686;1261;74768;-50
2023/05/07 04:03:17;;;;;;;3.00;2.70;;;;;;;5.11;100.00;101514.68;105573;1260;67147;-50
2023/05/07 04:05:44;;;;;;;4.80;2.70;;;;;;;5.33;100.00;101538.58;105593;1264;73928;-50
2023/05/07 04:08:11;;;;;;;3.70;2.60;;;;;;;5.54;100.00;101555.59;105463;1264;61447;-50
2023/05/07 04:10:40;;;;;;;3.80;2.90;;;;;;;5.69;100.00;101580.56;105564;1257;61173;-50
2023/05/07 04:13:09;;;;;;;4.80;2.70;;;;;;;5.82;100.00;101594.35;105442;1263;75351;-49
2023/05/07 04:15:36;;;;;;;2.90;2.60;;;;;;;5.96;100.00;101609.17;105419;1263;67213;-50
2023/05/07 04:18:06;;;;;;;6.50;2.60;;;;;;;6.10;100.00;101620.95;105526;1260;75289;-50
2023/05/07 04:20:36;;;;;;;5.70;2.70;;;;;;;6.26;100.00;101633.24;105547;1257;61763;-50
2023/05/07 04:23:04;;;;;;;2.60;2.30;;;;;;;6.39;100.00;101636.04;105610;1256;63066;-50
2023/05/07 04:25:31;;;;;;;6.60;2.60;;;;;;;6.52;100.00;101639.88;105589;1261;75251;-48
2023/05/07 04:28:07;;;;;;;3.40;2.20;;;;;;;6.65;100.00;101638.20;105580;1258;67799;-48
2023/05/07 04:30:35;;;;;;;4.90;2.50;;;;;;;6.76;100.00;101644.04;105502;1257;75252;-49
2023/05/07 04:33:02;;;;;;;8.10;3.30;;;;;;;6.92;97.65;101642.23;105547;1256;62706;-49
2023/05/07 04:35:30;;;;;;;5.00;2.00;;;;;;;7.08;89.78;101639.73;105615;1267;62109;-49
2023/05/07 04:37:58;;;;;;;6.60;1.70;;;;;;;7.26;82.06;101637.41;105578;1260;75706;-49
2023/05/07 04:40:25;;;;;;;4.30;1.80;;;;;;;7.46;74.12;101625.66;105631;1257;66345;-50
2023/05/07 04:42:53;;;;;;;3.80;2.10;;;;;;;7.68;67.40;101590.72;105614;1260;75977;-49
2023/05/07 04:45:21;;;;;;;9.40;2.20;;;;;;;7.81;62.99;101549.11;105614;1257;63174;-49
2023/05/07 04:47:49;;;;;;;7.70;1.90;;;;;;;7.92;56.93;101397.78;105497;1256;63437;-50
2023/05/07 04:50:19;;;;;;;12.60;2.30;;;;;;;7.86;54.93;101387.26;105517;1263;75481;-49
2023/05/07 04:52:46;;;;;;;3.30;1.60;;;;;;;7.74;54.14;101383.72;105591;1257;67476;-48
2023/05/07 04:55:14;;;;;;;7.10;1.90;;;;;;;7.63;54.55;101458.54;105508;1261;74145;-49
2023/05/07 04:57:42;;;;;;;2.60;1.50;;;;;;;7.63;55.19;101516.79;105583;1257;62438;-49
2023/05/07 05:00:10;;;;;;;3.60;2.30;;;;;;;7.75;55.54;101543.03;105452;1264;62113;-49
2023/05/07 05:02:38;;;;;;;3.00;2.60;;;;;;;7.92;54.95;101510.89;105533;1264;75893;-50
2023/05/07 05:05:06;;;;;;;6.00;2.00;;;;;;;8.09;54.23;101481.82;105618;1260;66757;-50
2023/05/07 05:07:33;;;;;;;6.50;1.90;;;;;;;8.30;53.45;101441.39;105473;1260;74391;-50
2023/05/07 05:10:02;;;;;;;4.30;1.40;;;;;;;8.50;51.86;101357.91;105545;1257;61807;-50
2023/05/07 05:12:30;;;;;;;3.40;1.70;;;;;;;8.63;51.85;101369.70;105601;1261;61322;-50
2023/05/07 05:14:58;;;;;;;4.60;1.70;;;;;;;8.81;51.45;101364.94;105600;1260;75733;-50
2023/05/07 05:17:25;;;;;;;9.80;2.10;;;;;;;9.01;50.17;101277.36;105581;1257;67144;-50
2023/05/07 05:19:52;;;;;;;5.30;2.20;;;;;;;9.12;49.11;101208.67;105552;1257;75186;-49
2023/05/07 05:22:21;;;;;;;4.30;2.20;;;;;;;9.17;47.64;101116.35;105554;1257;62174;-48
2023/05/07 05:24:48;;;;;;;7.10;1.90;;;;;;;9.13;47.93;101165.96;105430;1257;62738;-48
2023/05/07 05:27:15;;;;;;;2.20;2.00;;;;;;;9.12;48.50;101241.91;105423;1257;74148;-48
2023/05/07 05:29:43;;;;;;;4.60;2.10;;;;;;;9.20;49.06;101315.62;105582;1257;67317;-49
2023/05/07 05:32:10;;;;;;;4.20;1.90;;;;;;;9.30;47.61;101179.04;105903;1257;75480;-48
2023/05/07 05:34:38;;;;;;;8.70;2.40;;;;;;;9.23;47.16;101160.27;105856;1252;63142;-48
2023/05/07 05:37:05;;;;;;;4.50;2.00;;;;;;;9.23;46.32;101100.00;105658;1263;61535;-49
2023/05/07 05:39:33;;;;;;;3.00;2.00;;;;;;;9.21;46.06;101086.56;105865;1257;75707;-49
2023/05/07 05:42:01;;;;;;;2.10;1.90;;;;;;;9.24;47.22;101217.80;105841;1254;66218;-49
2023/05/07 05:44:30;;;;;;;6.90;2.00;;;;;;;9.37;45.72;101084.80;105608;1259;75232;-49
2023/05/07 05:46:59;;;;;;;3.90;2.20;;;;;;;9.38;45.53;101075.66;105830;1254;62722;-49
2023/05/07 05:49:26;;;;;;;3.40;2.00;;;;;;;9.45;44.86;101028.09;105711;1257;63083;-49
2023/05/07 05:51:53;;;;;;;2.20;2.00;;;;;;;9.49;45.24;101064.43;105680;1259;75991;-49
2023/05/07 05:54:22;;;;;;;6.30;2.60;;;;;;;9.58;45.06;101060.59;105946;1254;67504;-50
2023/05/07 05:56:50;;;;;;;3.00;2.10;;;;;;;9.65;43.63;100929.58;105664;1259;75195;-51
2023/05/07 05:59:17;;;;;;;1.90;1.80;;;;;;;9.67;43.36;100905.45;105848;1254;62361;-50
2023/05/07 06:01:45;;;;;;;4.70;2.20;;;;;;;9.65;42.81;100862.38;105851;1257;61765;-50
2023/05/07 06:04:12;;;;;;;5.60;1.60;;;;;;;9.55;42.30;100845.73;105887;1253;76346;-49
2023/05/07 06:06:39;;;;;;;6.40;2.00;;;;;;;9.55;41.84;100794.23;105798;1253;67353;-49
2023/05/07 06:09:06;;;;;;;10.40;1.80;;;;;;;9.48;42.82;100899.04;105655;1254;74858;-49
2023/05/07 06:11:37;;;;;;;4.60;1.60;;;;;;;9.55;43.44;100973.60;105647;1254;61281;-49
2023/05/07 06:14:05;;;;;;;7.80;1.90;;;;;;;9.70;42.46;100890.43;105850;1255;62782;-49
2023/05/07 06:16:32;;;;;;;7.90;2.20;;;;;;;9.79;41.87;100834.17;105875;1257;75754;-49
2023/05/07 06:19:00;;;;;;;2.70;1.40;;;;;;;9.84;42.17;100845.33;105884;1253;66651;-49
2023/05/07 06:21:27;;;;;;;6.50;1.90;;;;;;;9.94;41.84;100848.50;105867;1254;75399;-50
2023/05/07 06:23:54;;;;;;;13.10;1.50;;;;;;;10.00;39.92;100628.28;105881;1254;61503;-50
2023/05/07 06:26:22;;;;;;;5.10;1.80;;;;;;;9.95;38.88;100518.53;105894;1254;63072;-49
2023/05/07 06:28:49;;;;;;;2.50;1.60;;;;;;;9.90;38.95;100513.60;105699;1254;75426;-50
2023/05/07 06:31:20;;;;;;;2.70;1.40;;;;;;;9.90;39.55;100594.96;105714;1254;65922;-50
2023/05/07 06:34:07;;;;;;;3.30;1.50;;;;;;;9.97;39.89;100629.86;105854;1255;74486;-49
2023/05/07 06:36:36;;;;;;;7.90;2.00;;;;;;;10.04;39.98;100662.88;105892;1253;63113;-50
2023/05/07 06:39:27;;;;;;;8.40;1.70;;;;;;;10.14;40.00;100682.06;105459;1255;61766;-49
2023/05/07 06:41:54;;;;;;;3.40;2.00;;;;;;;10.28;40.95;100789.86;105822;1257;76235;-48
2023/05/07 06:44:25;;;;;;;3.50;1.80;;;;;;;10.45;39.44;100661.14;105812;1257;66872;-49
2023/05/07 06:47:06;;;;;;;13.30;1.70;;;;;;;10.40;38.96;100581.34;105812;1253;74776;-49
2023/05/07 06:49:33;;;;;;;5.70;1.80;;;;;;;10.23;39.37;100622.96;105829;1254;61844;-48
2023/05/07 06:52:01;;;;;;;4.70;1.70;;;;;;;10.23;40.78;100783.89;105865;1256;61709;-50
2023/05/07 06:54:29;;;;;;;3.50;2.30;;;;;;;10.47;41.69;100891.13;105902;1253;75827;-49
2023/05/07 06:56:57;;;;;;;3.00;1.90;;;;;;;10.78;41.01;100835.01;105861;1254;66094;-49
2023/05/07 06:59:26;;;;;;;3.80;1.50;;;;;;;10.99;39.61;100684.32;105712;1257;73855;-50
2023/05/07 07:01:54;;;;;;;3.90;2.10;;;;;;;10.97;38.47;100552.27;105383;1254;63090;-50
2023/05/07 07:04:23;;;;;;;4.60;1.70;;;;;;;10.88;38.56;100551.20;105667;1253;61690;-51
2023/05/07 07:06:57;;;;;;;4.10;2.00;;;;;;;10.93;39.49;100647.30;105821;1257;74514;-50
2023/05/07 07:09:25;;;;;;;4.10;2.20;;;;;;;11.03;39.12;100612.23;105692;1257;66374;-50
2023/05/07 07:11:52;;;;;;;8.70;2.20;;;;;;;11.15;39.76;100677.49;105663;1258;75292;-49
2023/05/07 07:14:20;;;;;;;33.10;3.20;;;;;;;11.29;39.35;100648.39;105871;1254;62971;-49
2023/05/07 07:16:49;;;;;;;6.20;1.70;;;;;;;11.42;39.10;100632.60;105766;1254;62814;-49
2023/05/07 07:19:17;;;;;;;9.70;1.90;;;;;;;11.43;38.38;100545.85;105899;1253;75878;-49
2023/05/07 07:21:46;;;;;;;9.50;2.00;;;;;;;11.45;38.00;100509.68;105663;1253;67518;-49
2023/05/07 07:24:18;;;;;;;5.60;1.80;;;;;;;11.55;37.96;100482.35;105726;1257;75082;-49
2023/05/07 07:26:47;;;;;;;3.70;2.00;;;;;;;11.72;38.75;100569.45;105717;1254;63254;-50
2023/05/07 07:29:15;;;;;;;2.50;2.00;;;;;;;11.93;38.42;100554.80;105722;1257;62057;-50
2023/05/07 07:31:42;;;;;;;6.60;2.20;;;;;;;12.07;38.10;100524.59;105843;1253;76264;-50
2023/05/07 07:34:10;;;;;;;7.20;2.10;;;;;;;12.15;38.06;100510.58;105840;1257;66514;-50
2023/05/07 07:36:37;;;;;;;3.60;2.10;;;;;;;12.15;37.00;100399.68;105906;1256;74565;-50
2023/05/07 07:39:15;;;;;;;20.50;2.60;;;;;;;12.21;36.99;100393.31;105725;1254;61820;-51
2023/05/07 07:41:42;;;;;;;3.40;1.80;;;;;;;12.34;36.50;100355.92;105730;1257;61698;-50
2023/05/07 07:44:12;;;;;;;2.70;2.50;;;;;;;12.46;35.84;100284.84;105918;1257;76533;-51
2023/05/07 07:46:44;;;;;;;5.40;2.20;;;;;;;12.63;35.73;100273.26;105855;1253;67537;-50
2023/05/07 07:49:11;;;;;;;3.90;2.00;;;;;;;12.75;35.01;100193.08;105840;1254;75607;-50
2023/05/07 07:51:38;;;;;;;4.50;1.80;;;;;;;12.82;34.38;100108.53;105835;1253;63245;-50
2023/05/07 07:54:06;;;;;;;66.30;4.20;;;;;;;12.90;34.49;100121.08;105670;1253;62756;-50
2023/05/07 07:56:36;;;;;;;61.10;4.60;;;;;;;13.08;34.94;100170.20;105913;1257;75033;-50
2023/05/07 07:59:03;;;;;;;11.20;2.00;;;;;;;13.34;34.67;100144.20;105680;1258;66794;-51
2023/05/07 08:01:31;;;;;;;4.00;2.40;;;;;;;13.66;33.93;100061.63;105833;1253;75421;-50
2023/05/07 08:03:58;;;;;;;5.80;1.90;;;;;;;13.81;33.74;100029.69;105863;1253;63194;-50
2023/05/07 08:06:26;;;;;;;2.80;2.40;;;;;;;13.74;33.72;100028.55;105708;1253;62483;-50
2023/05/07 08:08:54;;;;;;;3.10;2.20;;;;;;;13.67;32.67;99912.14;105900;1257;76400;-50
2023/05/07 08:11:22;;;;;;;5.70;2.20;;;;;;;13.56;33.03;99934.77;105833;1254;65495;-50
2023/05/07 08:13:49;;;;;;;8.50;2.10;;;;;;;13.37;32.98;99919.01;105890;1255;75203;-50
2023/05/07 08:16:16;;;;;;;8.60;2.50;;;;;;;13.26;32.76;99895.50;105675;1259;62654;-50
2023/05/07 08:18:44;;;;;;;3.80;2.30;;;;;;;13.10;33.52;99963.31;105891;1253;62218;-50
2023/05/07 08:21:13;;;;;;;6.60;2.10;;;;;;;13.09;33.73;100002.85;105902;1257;76475;-50
2023/05/07 08:23:40;;;;;;;5.50;2.40;;;;;;;13.11;34.13;100049.55;105669;1253;65490;-50
2023/05/07 08:26:08;;;;;;;6.30;2.00;;;;;;;13.29;34.83;100101.23;105673;1259;75591;-51
2023/05/07 08:28:35;;;;;;;10.00;2.50;;;;;;;13.64;34.95;100163.48;105711;1257;62741;-51
2023/05/07 08:31:02;;;;;;;12.30;2.30;;;;;;;13.91;33.68;100015.60;105817;1253;62491;-50
2023/05/07 08:33:33;;;;;;;9.10;2.30;;;;;;;13.97;33.37;99967.83;105834;1257;76764;-50
2023/05/07 08:36:00;;;;;;;8.20;1.80;;;;;;;14.04;33.12;99933.72;105762;1253;66250;-50
2023/05/07 08:38:28;;;;;;;6.80;2.30;;;;;;;14.04;32.34;99849.41;105870;1254;74243;-50
2023/05/07 08:40:56;;;;;;;14.10;2.70;;;;;;;14.01;33.55;99927.24;105848;1257;62213;-50
2023/05/07 08:43:26;;;;;;;9.90;2.20;;;;;;;14.11;33.16;99924.25;105864;1259;62962;-52
2023/05/07 08:45:54;;;;;;;6.00;1.70;;;;;;;14.16;33.82;99976.95;105749;1253;75558;-51
2023/05/07 08:48:24;;;;;;;6.80;1.90;;;;;;;14.23;31.75;99771.41;105735;1253;67214;-50
2023/05/07 08:50:57;;;;;;;10.00;2.00;;;;;;;14.23;32.75;99840.12;105627;1253;75663;-51
2023/05/07 08:53:25;;;;;;;7.80;1.80;;;;;;;14.73;32.54;99826.62;105692;1259;62546;-51
2023/05/07 08:55:53;;;;;;;3.10;1.60;;;;;;;15.30;29.80;99563.44;105893;1254;62141;-50
2023/05/07 08:58:20;;;;;;;8.20;2.00;;;;;;;15.30;28.29;99296.02;105843;1257;75659;-51
2023/05/07 09:00:48;;;;;;;10.20;1.80;;;;;;;15.06;29.66;99417.70;105776;1252;65714;-49
2023/05/07 09:03:16;;;;;;;7.50;1.80;;;;;;;14.99;30.36;99500.79;105863;1254;74120;-49
2023/05/07 09:05:46;;;;;;;8.40;1.70;;;;;;;14.98;30.71;99551.73;105898;1253;61396;-50
2023/05/07 09:08:14;;;;;;;5.10;2.20;;;;;;;14.88;30.03;99470.96;105881;1258;62221;-50
2023/05/07 09:10:42;;;;;;;4.30;1.90;;;;;;;14.80;31.08;99593.10;105869;1257;76539;-50
2023/05/07 09:13:10;;;;;;;4.60;1.50;;;;;;;14.86;31.11;99617.13;105919;1252;67476;-50
2023/05/07 09:15:38;;;;;;;8.20;1.50;;;;;;;14.97;31.02;99634.11;105544;1261;74427;-50
2023/05/07 09:18:05;;;;;;;23.60;2.40;;;;;;;14.96;30.62;99578.40;105675;1253;62236;-49
2023/05/07 09:20:33;;;;;;;3.60;1.80;;;;;;;14.79;30.57;99581.70;105727;1254;60784;-49
2023/05/07 09:23:01;;;;;;;7.30;1.80;;;;;;;14.51;30.59;99590.45;105882;1253;75552;-50
2023/05/07 09:25:29;;;;;;;6.30;2.30;;;;;;;14.30;30.87;99626.89;105709;1253;66592;-50
2023/05/07 09:27:58;;;;;;;8.70;2.20;;;;;;;14.10;30.89;99622.91;105675;1253;74889;-50
2023/05/07 09:30:31;;;;;;;13.70;2.00;;;;;;;13.93;30.75;99637.24;105688;1253;61701;-49
2023/05/07 09:33:00;;;;;;;5.40;2.00;;;;;;;13.72;30.52;99618.22;105680;1258;60595;-50
2023/05/07 09:35:28;;;;;;;5.50;1.70;;;;;;;13.47;30.93;99657.63;105714;1255;74356;-50
2023/05/07 09:37:58;;;;;;;4.30;1.70;;;;;;;13.41;31.28;99709.48;105849;1253;66658;-50
2023/05/07 09:40:30;;;;;;;2.60;1.60;;;;;;;13.46;31.35;99721.63;105682;1258;75066;-49
2023/05/07 09:43:11;;;;;;;12.40;1.30;;;;;;;13.82;32.10;99797.27;105708;1254;63280;-50
2023/05/07 09:45:42;;;;;;;3.70;1.60;;;;;;;14.38;31.28;99737.23;105823;1257;61886;-50
2023/05/07 09:48:10;;;;;;;10.20;1.70;;;;;;;14.83;31.32;99738.33;105709;1258;76465;-50
2023/05/07 09:50:46;;;;;;;10.70;2.90;;;;;;;15.16;30.87;99686.00;105712;1253;65402;-50
2023/05/07 09:53:13;;;;;;;7.30;2.40;;;;;;;15.47;30.57;99638.58;105706;1258;74898;-50
2023/05/07 09:55:41;;;;;;;1.60;1.50;;;;;;;15.52;30.52;99646.11;105678;1253;62434;-51
2023/05/07 09:58:08;;;;;;;3.00;2.00;;;;;;;15.55;30.68;99630.69;105704;1259;62078;-50
2023/05/07 10:00:36;;;;;;;9.80;2.10;;;;;;;15.65;31.47;99709.31;105810;1253;75037;-50
2023/05/07 10:03:06;;;;;;;8.00;1.90;;;;;;;15.78;30.43;99644.58;105678;1253;67266;-50
2023/05/07 10:05:40;;;;;;;3.30;1.70;;;;;;;15.77;30.01;99575.77;105694;1257;75269;-51
2023/05/07 10:08:07;;;;;;;5.40;2.10;;;;;;;15.77;30.31;99622.56;105955;1253;63046;-50
2023/05/07 10:10:35;;;;;;;17.40;1.80;;;;;;;15.83;30.51;99611.84;105728;1254;63094;-51
2023/05/07 10:13:05;;;;;;;7.10;2.10;;;;;;;16.03;29.22;99515.06;105561;1253;75313;-51
2023/05/07 10:15:33;;;;;;;15.70;3.30;;;;;;;16.12;29.16;99459.42;105884;1253;67222;-51
2023/05/07 10:18:00;;;;;;;3.80;2.00;;;;;;;16.03;29.91;99502.02;105678;1253;75479;-51
2023/05/07 10:20:28;;;;;;;3.60;2.00;;;;;;;16.17;29.59;99482.80;105913;1254;62428;-51
2023/05/07 10:22:56;;;;;;;6.90;3.40;;;;;;;16.33;28.58;99387.38;105693;1259;63111;-51
2023/05/07 10:25:31;;;;;;;15.30;5.80;;;;;;;16.46;29.09;99413.60;105674;1256;74837;-51
2023/05/07 10:28:06;;;;;;;11.80;5.70;;;;;;;16.47;29.42;99429.73;105925;1253;67141;-50
2023/05/07 10:31:01;;;;;;;7.60;2.00;;;;;;;16.47;28.95;99424.48;105667;1258;75302;-51
2023/05/07 10:33:34;;;;;;;8.10;1.60;;;;;;;16.54;28.85;99400.26;105868;1253;63147;-51
2023/05/07 10:36:04;;;;;;;3.80;1.40;;;;;;;16.60;28.68;99373.02;105856;1253;62128;-51
2023/05/07 10:38:32;;;;;;;10.00;2.70;;;;;;;16.75;29.53;99450.17;105694;1258;76588;-51
2023/05/07 10:40:59;;;;;;;7.40;2.50;;;;;;;16.78;28.56;99363.40;105674;1253;66109;-51
2023/05/07 10:43:41;;;;;;;4.10;2.20;;;;;;;16.68;28.22;99305.69;105703;1258;75137;-52
2023/05/07 10:46:16;;;;;;;7.00;3.10;;;;;;;16.70;28.84;99339.36;105654;1258;62557;-51
2023/05/07 10:49:01;;;;;;;3.60;2.30;;;;;;;16.90;28.81;99352.94;105642;1257;63121;-55
2023/05/07 10:51:35;;;;;;;22.20;2.40;;;;;;;16.92;28.37;99311.36;105785;1257;74532;-51
2023/05/07 10:54:19;;;;;;;4.50;1.80;;;;;;;16.53;28.63;99334.63;105681;1253;66571;-51
2023/05/07 10:56:55;;;;;;;1.90;1.80;;;;;;;16.26;29.43;99411.27;105856;1254;73793;-50
2023/05/07 10:59:33;;;;;;;11.90;2.10;;;;;;;16.31;30.29;99493.81;105868;1253;62910;-50
2023/05/07 11:02:07;;;;;;;6.80;1.60;;;;;;;16.33;29.36;99433.70;105828;1257;62831;-50
2023/05/07 11:05:23;;;;;;;4.40;1.90;;;;;;;16.25;29.20;99425.45;105661;1256;76539;-52
2023/05/07 11:08:11;;;;;;;9.20;1.80;;;;;;;16.06;29.01;99405.48;105866;1253;66954;-50
2023/05/07 11:10:53;;;;;;;8.00;1.90;;;;;;;15.96;29.77;99477.20;105659;1253;74556;-50
2023/05/07 11:13:47;;;;;;;8.30;2.00;;;;;;;15.95;29.98;99502.96;105843;1253;61882;-50
2023/05/07 11:16:29;;;;;;;6.00;1.80;;;;;;;16.16;30.73;99582.60;105830;1253;62818;-50
2023/05/07 11:19:07;;;;;;;8.50;1.70;;;;;;;16.47;30.58;99572.66;105838;1257;76376;-50
2023/05/07 11:21:40;;;;;;;1.70;1.60;;;;;;;16.68;28.64;99405.48;105702;1253;66225;-51
2023/05/07 11:24:42;;;;;;;2.30;1.70;;;;;;;16.64;29.05;99395.95;105539;1254;74413;-50
2023/05/07 11:27:11;;;;;;;6.30;1.80;;;;;;;16.74;28.65;99363.86;105805;1253;62771;-49
2023/05/07 11:29:38;;;;;;;2.60;1.80;;;;;;;16.72;28.65;99348.83;105855;1257;61752;-53
2023/05/07 11:32:09;;;;;;;3.50;2.10;;;;;;;16.56;29.35;99405.32;105657;1253;76589;-50